sim
Sign-in with your pilot id or email,
or register
Callsign
Passwort

Schedule Details

Flight Number: OEO8919
Departure: Amsterdam Schiphol Airport (EHAM) at 07:55
Arrival: Bremen Airport (EDDW) at 09:05

Weather Information
Getting current METAR information for EHAM 101855Z 33008KT 9999 FEW032 15/09 Q1018 NOSIG
Getting current METAR information for EDDW 101850Z 30006KT 9999 FEW027 14/11 Q1016 NOSIG

Schedule Frequency

Route Map